Home
Sitemap | Login/Register | Contact
Defense and Aerospace
Sustainment Partner
SEARCH
Enter Part Number, NSN, or Keyword
REGISTRATION BENEFITS
  • Priority Processing
  • RFQ Tracking
  • Real Time Communication
  • Dedicated Account Manager
  • Order Tracking

ALREADY A MEMBER?
Login to speed up your request

login
RFQ CART
You have 0 items in your RFQ cart.

CONTACT US
2350 Commerce Park Drive
Palm Bay, FL 32905 USA
info@iso-group.com

USA : 1-877-330-1580
Intl : +1-321-773-5710
Fax : +1-321-777-0499

ISO Group supports National Stock Numbers (NSN) relating to 1660-01-028-9647 - 1660010294888 and spare parts logistics for Aircraft Air Conditioning, Heating, and Pressurizing Equipment. 1660-01-028-9647 - 1660010294888 Request Quotes. Buy Online.



REQUEST QUOTE for 1660-01-028-9647
Part Number*
Alternate
QTY*
Name*
Email*
Telephone*
*Click here to Upload a List of parts




1660-01-028-9647 - 1660010294888

  • 1660-01-028-9647 1660010289647, 1660-01-028-9647 - BODY,VALVE - 1660010289647
  • 1660-01-029-4364 1660010294364, 1660-01-029-4364 - DUCT ASSEMBLY,AIR CONDITIONING-HEATING,AIRCRAFT - 1660010294364
  • 1660-01-029-4888 1660010294888, 1660-01-029-4888 - DIAPHRAGM,VALVE,FLAT - 1660010294888
  • 1660-01-029-4966 1660010294966, 1660-01-029-4966 - PISTON ASSEMBLY - 1660010294966
  • 1660-01-029-5430 1660010295430, 1660-01-029-5430 - CONTROL BOX,ELECTRICAL/ELECTRONIC,AIRCRAFT AIR TEM - 1660010295430
  • 1660-01-029-7235 1660010297235, 1660-01-029-7235 - PLATE,TURBINE MOTOR - 1660010297235
  • 1660-01-029-7236 1660010297236, 1660-01-029-7236 - HUB,FAN - 1660010297236
  • 1660-01-029-7238 1660010297238, 1660-01-029-7238 - SEAT SPRING,TURBINE MOTOR - 1660010297238
  • 1660-01-029-7239 1660010297239, 1660-01-029-7239 - HOUSING,GEAR,REGULATOR - 1660010297239
  • 1660-01-029-7240 1660010297240, 1660-01-029-7240 - PLATE,REGULATOR - 1660010297240
  • 1660-01-029-7598 1660010297598, 1660-01-029-7598 - REGULATOR,AIR PRESSURE,AIRCRAFT CABIN - 1660010297598
  • 1660-01-029-7599 1660010297599, 1660-01-029-7599 - DUCT - 1660010297599
  • 1660-01-029-7600 1660010297600, 1660-01-029-7600 - HEATER - 1660010297600
  • 1660-01-029-7601 1660010297601, 1660-01-029-7601 - HOUSING - 1660010297601
  • 1660-01-029-7602 1660010297602, 1660-01-029-7602 - DUCT - 1660010297602
  • 1660-01-029-7603 1660010297603, 1660-01-029-7603 - SUPPORT - 1660010297603
  • 1660-01-029-7827 1660010297827, 1660-01-029-7827 - HOUSING,CONTROLLER - 1660010297827
  • 1660-01-029-7829 1660010297829, 1660-01-029-7829 - INSULATOR LAMP - 1660010297829
  • 1660-01-029-7830 1660010297830, 1660-01-029-7830 - SUMP,OIL - 1660010297830
  • 1660-01-029-7831 1660010297831, 1660-01-029-7831 - HOUSING COMPRESSOR - 1660010297831
  • 1660-01-029-7832 1660010297832, 1660-01-029-7832 - SHIELD HEAT - 1660010297832
  • 1660-01-029-8313 1660010298313, 1660-01-029-8313 - PARTS KIT,ACTUATOR OVERHAUL - 1660010298313
  • 1660-01-029-8314 1660010298314, 1660-01-029-8314 - COMPRESSOR ROTOR SET - 1660010298314
  • 1660-01-029-8725 1660010298725, 1660-01-029-8725 - VALVE ASSY,AIR DISTRIBUTION - 1660010298725
  • 1660-01-030-1099 1660010301099, 1660-01-030-1099 - VENT,FAN,AIRCONDITIONING,AIRCRAFT - 1660010301099
  • 1660-01-030-1100 1660010301100, 1660-01-030-1100 - PLATE,TURBINE - 1660010301100
  • 1660-01-030-1103 1660010301103, 1660-01-030-1103 - SEAT,SPRING,TURBINE MOTOR - 1660010301103
  • 1660-01-030-1105 1660010301105, 1660-01-030-1105 - SEAL RING,TURBINE,MOTOR - 1660010301105
  • 1660-01-030-1106 1660010301106, 1660-01-030-1106 - SPACER FINNED,TURBINE MOTOR - 1660010301106
  • 1660-01-030-1107 1660010301107, 1660-01-030-1107 - HOUSING,TURBINE,AIRCONDITIONING - 1660010301107
  • 1660-01-030-1110 1660010301110, 1660-01-030-1110 - STEM,REGULATOR - 1660010301110
  • 1660-01-030-1111 1660010301111, 1660-01-030-1111 - LEVER,REGULATOR CONTROL - 1660010301111
  • 1660-01-030-1113 1660010301113, 1660-01-030-1113 - HOUSING,ACTUATOR,REGULATOR - 1660010301113
  • 1660-01-030-1114 1660010301114, 1660-01-030-1114 - SEAT,REGULATOR - 1660010301114
  • 1660-01-030-1115 1660010301115, 1660-01-030-1115 - ROD,PUSH,REGULATOR - 1660010301115
  • 1660-01-030-1116 1660010301116, 1660-01-030-1116 - COUPLER,PISTON,REGULATOR - 1660010301116
  • 1660-01-030-1117 1660010301117, 1660-01-030-1117 - PISTON,ACTUATOR,REGULATOR - 1660010301117
  • 1660-01-030-1118 1660010301118, 1660-01-030-1118 - BODY,VALVE,REGULATOR - 1660010301118
  • 1660-01-030-1263 1660010301263, 1660-01-030-1263 - ARMATURE ASSEMBLY - 1660010301263
  • 1660-01-030-2440 1660010302440, 1660-01-030-2440 - VALVE-FILTER ASSEMBLY - 1660010302440
  • 1660-01-030-2821 1660010302821, 1660-01-030-2821 - CONTROL BOX,ELECTRONIC,AIRCRAFT AIR TEMPERATURE - 1660010302821
  • 1660-01-030-3427 1660010303427, 1660-01-030-3427 - COVER GEAR CASE - 1660010303427
  • 1660-01-030-3428 1660010303428, 1660-01-030-3428 - SHAFT VALVE BUTTERFLY - 1660010303428
  • 1660-01-030-4769 1660010304769, 1660-01-030-4769 - CYLINDER ASSEMBLY,OXYGEN FILLED - 1660010304769
  • 1660-01-030-6560 1660010306560, 1660-01-030-6560 - SPACER - 1660010306560
  • 1660-01-030-7879 1660010307879, 1660-01-030-7879 - DRUM,TAPE PANEL - 1660010307879
  • 1660-01-030-7938 1660010307938, 1660-01-030-7938 - PARTS KIT,TURBINE - 1660010307938
  • 1660-01-030-8116 1660010308116, 1660-01-030-8116 - BRACKET ASSY,VALVE - 1660010308116
  • 1660-01-031-3845 1660010313845, 1660-01-031-3845 - TURBINE,AIRCRAFT COOLING - 1660010313845
  • 1660-01-031-5680 1660010315680, 1660-01-031-5680 - BELLOWS,PRESSURE - 1660010315680
  • 1660-01-031-5681 1660010315681, 1660-01-031-5681 - SEAT SPRING - 1660010315681
  • 1660-01-031-5682 1660010315682, 1660-01-031-5682 - SHAFT AND DISC - 1660010315682
  • 1660-01-031-5987 1660010315987, 1660-01-031-5987 - VALVE ASSY,AIR DISTRIBUTION - 1660010315987
  • 1660-01-031-6981 1660010316981, 1660-01-031-6981 - VALVE,FLAPPER - 1660010316981
  • 1660-01-031-6982 1660010316982, 1660-01-031-6982 - VALVE,FLAPPER - 1660010316982
  • 1660-01-032-0181 1660010320181, 1660-01-032-0181 - ARM INDICATOR,POSITION - 1660010320181
  • 1660-01-032-0182 1660010320182, 1660-01-032-0182 - HOUSING,REGULATOR - 1660010320182
  • 1660-01-032-0183 1660010320183, 1660-01-032-0183 - CONNECTOR BRACKET,REGULATOR - 1660010320183
  • 1660-01-032-0184 1660010320184, 1660-01-032-0184 - SCREW AND PIN ASSEMBLY,GEAR BOX - 1660010320184
  • 1660-01-032-0185 1660010320185, 1660-01-032-0185 - CONTROL LEVER - 1660010320185
  • 1660-01-032-0790 1660010320790, 1660-01-032-0790 - COVER,OUTFLOW VALVE,AIRCRAFT - 1660010320790
  • 1660-01-032-0791 1660010320791, 1660-01-032-0791 - COVER,OUTFLOW VALVE,AIRCRAFT - 1660010320791
  • 1660-01-032-1206 1660010321206, 1660-01-032-1206 - ARM AND INSERT,ACTUATOR - 1660010321206
  • 1660-01-032-1207 1660010321207, 1660-01-032-1207 - SLEEVE,VALVE - 1660010321207
  • 1660-01-032-1208 1660010321208, 1660-01-032-1208 - COVER,ACTUATOR - 1660010321208
  • 1660-01-032-1209 1660010321209, 1660-01-032-1209 - LEVER AND INSERT,VALVE - 1660010321209
  • 1660-01-032-1210 1660010321210, 1660-01-032-1210 - CRANK-ARM,VALVE - 1660010321210
  • 1660-01-032-1211 1660010321211, 1660-01-032-1211 - ORIFICE,VALVE,ADJUSTABLE - 1660010321211
  • 1660-01-032-1212 1660010321212, 1660-01-032-1212 - HOUSING AND TUBE,LEVER - 1660010321212
  • 1660-01-032-1213 1660010321213, 1660-01-032-1213 - POPPET,FLOW RESTRICTOR - 1660010321213
  • 1660-01-032-1214 1660010321214, 1660-01-032-1214 - SUPPORT DIAPHRAGM - 1660010321214
  • 1660-01-032-1215 1660010321215, 1660-01-032-1215 - HOUSING VALVE - 1660010321215
  • 1660-01-032-1216 1660010321216, 1660-01-032-1216 - BODY,VALVE - 1660010321216
  • 1660-01-032-1521 1660010321521, 1660-01-032-1521 - HEATER,AIRCRAFT - 1660010321521
  • 1660-01-032-1726 1660010321726, 1660-01-032-1726 - CONNECTOR BRACKET - 1660010321726
  • 1660-01-032-1727 1660010321727, 1660-01-032-1727 - FLOW SENSOR COVER - 1660010321727
  • 1660-01-032-1728 1660010321728, 1660-01-032-1728 - CONTROL HOUSING,AIRCRAFT AIR CONDITION - 1660010321728
  • 1660-01-032-2790 1660010322790, 1660-01-032-2790 - BELLOWS,PRESSURE - 1660010322790
  • 1660-01-032-2802 1660010322802, 1660-01-032-2802 - TUBE TRANSFER - 1660010322802
  • 1660-01-032-2803 1660010322803, 1660-01-032-2803 - SEAT SPRING - 1660010322803
  • 1660-01-032-2804 1660010322804, 1660-01-032-2804 - SEAT SPRING - 1660010322804
  • 1660-01-032-2807 1660010322807, 1660-01-032-2807 - DUCT ASSEMBLY,AIR CONDITIONING-HEATING,AIRCRAFT - 1660010322807
  • 1660-01-032-3790 1660010323790, 1660-01-032-3790 - COVER CONTROLLER ASSEMBLY - 1660010323790
  • 1660-01-032-3791 1660010323791, 1660-01-032-3791 - COVER,PROTECTIVE,HEAT EXCHANGE - 1660010323791
  • 1660-01-032-3795 1660010323795, 1660-01-032-3795 - SEAL,TURBINE - 1660010323795
  • 1660-01-032-3796 1660010323796, 1660-01-032-3796 - BOARD PRINTED WIRING - 1660010323796
  • 1660-01-032-3827 1660010323827, 1660-01-032-3827 - BODY,VALVE - 1660010323827
  • 1660-01-032-3828 1660010323828, 1660-01-032-3828 - GUARD,LIFE RAFT RH - 1660010323828
  • 1660-01-032-3829 1660010323829, 1660-01-032-3829 - GUARD,LIFE RAFT LH - 1660010323829
  • 1660-01-032-3830 1660010323830, 1660-01-032-3830 - ROLLER,CABLE GUIDE - 1660010323830
  • 1660-01-032-3831 1660010323831, 1660-01-032-3831 - SELECTOR ASSEMBLY,MODE - 1660010323831
  • 1660-01-032-5829 1660010325829, 1660-01-032-5829 - BRACKET,CONNECTOR - 1660010325829
  • 1660-01-032-6777 1660010326777, 1660-01-032-6777 - DISCONNECT ASSEMBLY,LEFT HAND - 1660010326777
  • 1660-01-032-6778 1660010326778, 1660-01-032-6778 - LOCK ASSEMBLY,LEFT HAND - 1660010326778
  • 1660-01-032-7524 1660010327524, 1660-01-032-7524 - PISTON,REGULATOR - 1660010327524
  • 1660-01-032-7621 1660010327621, 1660-01-032-7621 - IMPELLER,FAN,CENTRIFUGAL - 1660010327621
  • 1660-01-032-8836 1660010328836, 1660-01-032-8836 - RING,SUPPORT - 1660010328836
  • 1660-01-032-8837 1660010328837, 1660-01-032-8837 - BODY,CONTROL VALVE,AIRCRAFT - 1660010328837
  • 1660-01-032-8903 1660010328903, 1660-01-032-8903 - RETAINER,VALVE - 1660010328903
  • 1660-01-032-8905 1660010328905, 1660-01-032-8905 - FLANGE,HEAT EXCHANG - 1660010328905
  • 1660-01-032-8906 1660010328906, 1660-01-032-8906 - FLANGE,HEAT EXCHANG - 1660010328906
  • 1660-01-032-8907 1660010328907, 1660-01-032-8907 - FLANGE,HEAT EXCHANG - 1660010328907
  • 1660-01-032-9419 1660010329419, 1660-01-032-9419 - PLATE,SEAL RETAINER - 1660010329419
  • 1660-01-032-9420 1660010329420, 1660-01-032-9420 - DISK AND SHAFT,VALVE REGULATOR - 1660010329420
  • 1660-01-032-9610 1660010329610, 1660-01-032-9610 - BELLOWS,PRESSURE - 1660010329610
  • 1660-01-032-9915 1660010329915, 1660-01-032-9915 - BODY-VALVE - 1660010329915
  • 1660-01-033-2879 1660010332879, 1660-01-033-2879 - INTERCONNECT BOARD ASSEMBLY - 1660010332879
  • 1660-01-033-2993 1660010332993, 1660-01-033-2993 - DIFFUSER,AIR,AIRCRAFT HEATING AND VENTILATING - 1660010332993
  • 1660-01-033-3288 1660010333288, 1660-01-033-3288 - DISK-SHAFT SET - 1660010333288
  • 1660-01-033-4596 1660010334596, 1660-01-033-4596 - COVER,CHAMBER - 1660010334596
  • 1660-01-033-4597 1660010334597, 1660-01-033-4597 - COVER,ACTUATOR - 1660010334597
  • 1660-01-033-5439 1660010335439, 1660-01-033-5439 - VALVE ASSEMBLY,CABIN AIR FLOW - 1660010335439
  • 1660-01-033-6477 1660010336477, 1660-01-033-6477 - SHAFT,LOWER - 1660010336477
  • 1660-01-033-6478 1660010336478, 1660-01-033-6478 - FLANGE - 1660010336478
  • 1660-01-033-6484 1660010336484, 1660-01-033-6484 - MODULE,CONTROL - 1660010336484
  • 1660-01-033-6486 1660010336486, 1660-01-033-6486 - HOUSING AND ORIFICE - 1660010336486
  • 1660-01-033-8820 1660010338820, 1660-01-033-8820 - BUTTERFLY - 1660010338820
  • 1660-01-033-8821 1660010338821, 1660-01-033-8821 - HOUSING,AIR SHUTOFF - 1660010338821
  • 1660-01-033-8823 1660010338823, 1660-01-033-8823 - VALVE,RELIEF - 1660010338823
  • 1660-01-033-8824 1660010338824, 1660-01-033-8824 - HOUSING ASSEMBLY,WA - 1660010338824
  • 1660-01-033-8827 1660010338827, 1660-01-033-8827 - PLATE,NOZZLE SEAL - 1660010338827
  • 1660-01-033-9792 1660010339792, 1660-01-033-9792 - SHAFT ASSEMBLY,VALVE - 1660010339792
  • 1660-01-034-0001 1660010340001, 1660-01-034-0001 - SHAFT,SPECIAL - 1660010340001
  • 1660-01-034-0015 1660010340015, 1660-01-034-0015 - n/a - 1660010340015
  • 1660-01-034-0017 1660010340017, 1660-01-034-0017 - TURBINE SET,ROTOR - 1660010340017
  • 1660-01-034-0018 1660010340018, 1660-01-034-0018 - HOUSING,VALVE - 1660010340018
  • 1660-01-034-0019 1660010340019, 1660-01-034-0019 - COVER,HOUSING ACTUA - 1660010340019
  • 1660-01-034-0028 1660010340028, 1660-01-034-0028 - MASK,OXYGEN - 1660010340028
  • 1660-01-034-0029 1660010340029, 1660-01-034-0029 - TEE - 1660010340029
  • 1660-01-034-0030 1660010340030, 1660-01-034-0030 - TEE - 1660010340030
  • 1660-01-034-0768 1660010340768, 1660-01-034-0768 - WHEEL SET,TURBINE,MATCHED - 1660010340768
  • 1660-01-034-0796 1660010340796, 1660-01-034-0796 - n/a - 1660010340796
  • 1660-01-034-1173 1660010341173, 1660-01-034-1173 - BUSHING,COIL - 1660010341173
  • 1660-01-034-1177 1660010341177, 1660-01-034-1177 - GUIDE,SPRING - 1660010341177
  • 1660-01-034-1178 1660010341178, 1660-01-034-1178 - COVER ASSEMBLY,REGULATOR - 1660010341178
  • 1660-01-034-1218 1660010341218, 1660-01-034-1218 - VALVE ASSEMBLY,ENVIRONMENTAL CONTROL,AIRCRAFT - 1660010341218
  • 1660-01-034-1221 1660010341221, 1660-01-034-1221 - DISCONNECT ASSEMBLY,RIGHT HAND - 1660010341221
  • 1660-01-034-1222 1660010341222, 1660-01-034-1222 - MODE TRANSFER,LOCK ASSEMBLY - 1660010341222
  • 1660-01-034-1223 1660010341223, 1660-01-034-1223 - SLIDER,LOCK,RIGHT HAND - 1660010341223
  • 1660-01-034-1230 1660010341230, 1660-01-034-1230 - TURBINE,AIRCRAFT COOLING - 1660010341230
  • 1660-01-034-2436 1660010342436, 1660-01-034-2436 - COVER ASSEMBLY - 1660010342436
  • 1660-01-034-3286 1660010343286, 1660-01-034-3286 - PARTS KIT,VALVE OVERHAUL - 1660010343286
  • 1660-01-034-3368 1660010343368, 1660-01-034-3368 - HANDLE ASSEMBLY - 1660010343368
  • 1660-01-034-3677 1660010343677, 1660-01-034-3677 - TEMPERATURE OVERIDE - 1660010343677
  • 1660-01-034-3696 1660010343696, 1660-01-034-3696 - PARTS KIT,TURBINE CLOSURE - 1660010343696
  • 1660-01-034-3799 1660010343799, 1660-01-034-3799 - COUSHION,LIFE SUPPORT - 1660010343799
  • 1660-01-034-3800 1660010343800, 1660-01-034-3800 - ADAPTER,AIR INLET,HEAT EXCHANGER - 1660010343800
  • 1660-01-034-3801 1660010343801, 1660-01-034-3801 - LID,ASSEMBLY - 1660010343801
  • 1660-01-034-3802 1660010343802, 1660-01-034-3802 - LID,LEFT HAND LOCK - 1660010343802
  • 1660-01-034-3803 1660010343803, 1660-01-034-3803 - CABLE,LOCK - 1660010343803
  • 1660-01-034-3804 1660010343804, 1660-01-034-3804 - REEL,TRANSFER - 1660010343804
  • 1660-01-034-3805 1660010343805, 1660-01-034-3805 - SLIDER,TRANSFER-REEL - 1660010343805
  • 1660-01-034-3806 1660010343806, 1660-01-034-3806 - DETENT PULLEY - 1660010343806
  • 1660-01-034-4138 1660010344138, 1660-01-034-4138 - PLATE,COVER - 1660010344138
  • 1660-01-034-4139 1660010344139, 1660-01-034-4139 - PANEL,CONTROL MOUNT - 1660010344139
  • 1660-01-034-4406 1660010344406, 1660-01-034-4406 - PLATE - 1660010344406
  • 1660-01-034-4407 1660010344407, 1660-01-034-4407 - CAP,ACTUATOR - 1660010344407
  • 1660-01-034-4408 1660010344408, 1660-01-034-4408 - PLUG,DIAPHRAGM - 1660010344408
  • 1660-01-034-4409 1660010344409, 1660-01-034-4409 - POPPET,VALVE - 1660010344409
  • 1660-01-034-4410 1660010344410, 1660-01-034-4410 - SHROUD,FAN - 1660010344410
  • 1660-01-034-4416 1660010344416, 1660-01-034-4416 - PISTON,DIAPHRAGM - 1660010344416
  • 1660-01-034-4577 1660010344577, 1660-01-034-4577 - HARNESS ASSEMBLY,MASK,OXYGEN - 1660010344577
  • 1660-01-034-4578 1660010344578, 1660-01-034-4578 - LID - 1660010344578
  • 1660-01-034-4579 1660010344579, 1660-01-034-4579 - LANYARD STOWAGE ASSEMBLY - 1660010344579
  • 1660-01-034-4580 1660010344580, 1660-01-034-4580 - SPACER - 1660010344580
  • 1660-01-034-4581 1660010344581, 1660-01-034-4581 - PIN,LATCH - 1660010344581
  • 1660-01-034-4582 1660010344582, 1660-01-034-4582 - RETAINER,CABLE - 1660010344582
  • 1660-01-034-4583 1660010344583, 1660-01-034-4583 - STOP,CABLE - 1660010344583
  • 1660-01-034-4584 1660010344584, 1660-01-034-4584 - CABLE,MODE SELECTOR,MODE TRANSFER - 1660010344584
  • 1660-01-034-4585 1660010344585, 1660-01-034-4585 - CABLE,RELEASE - 1660010344585
  • 1660-01-034-4586 1660010344586, 1660-01-034-4586 - RELEASE ASSEMBLY,AUTOMATIC - 1660010344586
  • 1660-01-034-4587 1660010344587, 1660-01-034-4587 - SLIDER,ACTUATING,RELEASE - 1660010344587
  • 1660-01-034-4588 1660010344588, 1660-01-034-4588 - CABLE,RELEASE - 1660010344588
  • 1660-01-034-4589 1660010344589, 1660-01-034-4589 - VALVE ASSEMBLY,ENVIRONMENTAL CONTROL,AIRCRAFT - 1660010344589
  • 1660-01-034-4590 1660010344590, 1660-01-034-4590 - PARTS KIT,DISCONNECT - 1660010344590
  • 1660-01-034-4591 1660010344591, 1660-01-034-4591 - SPACER,PLUNGER - 1660010344591
  • 1660-01-034-4621 1660010344621, 1660-01-034-4621 - DUCT ASSEMBLY,AIR CONDITIONING-HEATING,AIRCRAFT - 1660010344621
  • 1660-01-034-4622 1660010344622, 1660-01-034-4622 - DUCT ASSEMBLY,AIR CONDITIONING-HEATING,AIRCRAFT - 1660010344622